createdAt,value
2023-06-05T00:00:37.821Z,21.30
2023-06-05T00:03:07.887Z,21.50
2023-06-05T00:05:38.972Z,21.40
2023-06-05T00:08:09.901Z,21.50
2023-06-05T00:10:39.619Z,21.60
2023-06-05T00:13:26.569Z,21.60
2023-06-05T00:15:57.701Z,21.60
2023-06-05T00:18:27.998Z,21.40
2023-06-05T00:20:59.656Z,21.30
2023-06-05T00:23:29.209Z,21.30
2023-06-05T00:26:00.811Z,21.50
2023-06-05T00:28:31.243Z,21.60
2023-06-05T00:31:01.049Z,21.50
2023-06-05T00:33:32.208Z,20.70
2023-06-05T00:36:04.869Z,20.10
2023-06-05T00:38:34.691Z,19.60
2023-06-05T00:41:05.019Z,19.40
2023-06-05T00:43:35.359Z,19.30
2023-06-05T00:46:06.294Z,18.90
2023-06-05T00:48:37.822Z,19.00
2023-06-05T00:51:11.838Z,18.80
2023-06-05T00:53:43.098Z,18.50
2023-06-05T00:56:30.817Z,18.00
2023-06-05T00:59:00.646Z,18.40
2023-06-05T01:01:31.456Z,18.00
2023-06-05T01:04:01.299Z,18.10
2023-06-05T01:06:35.606Z,18.20
2023-06-05T01:09:08.585Z,18.10
2023-06-05T01:11:43.919Z,18.20
2023-06-05T01:14:21.930Z,18.10
2023-06-05T01:16:55.029Z,18.20
2023-06-05T01:19:26.489Z,18.40
2023-06-05T01:22:00.486Z,18.40
2023-06-05T01:24:33.079Z,18.60
2023-06-05T01:27:10.757Z,18.30
2023-06-05T01:29:46.523Z,18.40
2023-06-05T01:32:22.813Z,18.30
2023-06-05T01:34:56.892Z,18.50
2023-06-05T01:37:28.776Z,18.80
2023-06-05T01:40:01.719Z,18.30
2023-06-05T01:42:32.879Z,18.30
2023-06-05T01:45:05.447Z,18.20
2023-06-05T01:47:36.233Z,18.10
2023-06-05T01:50:23.816Z,18.00
2023-06-05T01:52:53.936Z,18.00
2023-06-05T01:55:26.398Z,18.00
2023-06-05T01:57:56.317Z,18.10
2023-06-05T02:00:26.029Z,18.10
2023-06-05T02:02:56.762Z,18.20
2023-06-05T02:05:30.969Z,17.80
2023-06-05T02:08:07.308Z,17.70
2023-06-05T02:10:44.329Z,17.70
2023-06-05T02:13:14.547Z,17.70
2023-06-05T02:15:46.519Z,17.40
2023-06-05T02:18:17.438Z,17.60
2023-06-05T02:20:47.146Z,17.80
2023-06-05T02:23:35.027Z,18.00
2023-06-05T02:26:06.961Z,18.00
2023-06-05T02:28:37.599Z,18.10
2023-06-05T02:31:11.804Z,18.30
2023-06-05T02:33:42.337Z,18.20
2023-06-05T02:36:12.045Z,18.20
2023-06-05T02:38:42.258Z,18.20
2023-06-05T02:41:15.141Z,17.80
2023-06-05T02:43:44.957Z,18.00
2023-06-05T02:46:15.450Z,18.20
2023-06-05T02:48:46.520Z,18.20
2023-06-05T02:51:16.845Z,18.40
2023-06-05T02:53:48.599Z,18.40
2023-06-05T02:56:23.422Z,18.50
2023-06-05T02:58:53.604Z,18.60
2023-06-05T03:01:23.991Z,18.60
2023-06-05T03:03:58.558Z,18.60
2023-06-05T03:06:29.954Z,18.70
2023-06-05T03:09:00.903Z,18.80
2023-06-05T03:11:32.435Z,18.80
2023-06-05T03:14:03.074Z,18.80
2023-06-05T03:16:42.902Z,18.80
2023-06-05T03:19:13.873Z,18.90
2023-06-05T03:22:04.573Z,19.00
2023-06-05T03:24:39.173Z,18.80
2023-06-05T03:27:13.598Z,18.80
2023-06-05T03:30:03.993Z,19.10
2023-06-05T03:32:37.855Z,18.90
2023-06-05T03:35:10.275Z,19.00
2023-06-05T03:37:43.968Z,19.00
2023-06-05T03:40:15.568Z,19.10
2023-06-05T03:42:53.230Z,19.10
2023-06-05T03:45:23.769Z,19.30
2023-06-05T03:47:53.908Z,19.20
2023-06-05T03:50:25.318Z,19.00
2023-06-05T03:52:55.864Z,18.90
2023-06-05T03:55:29.869Z,18.60
2023-06-05T03:58:06.097Z,18.90
2023-06-05T04:00:36.765Z,18.60
2023-06-05T04:03:10.700Z,18.90
2023-06-05T04:05:58.926Z,19.00
2023-06-05T04:08:33.146Z,19.20
2023-06-05T04:11:20.353Z,19.10
2023-06-05T04:13:51.890Z,19.10
2023-06-05T04:16:21.889Z,19.10
2023-06-05T04:18:51.826Z,19.10
2023-06-05T04:21:21.335Z,19.00
2023-06-05T04:23:51.123Z,19.00
2023-06-05T04:26:21.991Z,19.10
2023-06-05T04:28:56.002Z,19.10
2023-06-05T04:31:26.745Z,19.00
2023-06-05T04:33:56.647Z,19.10
2023-06-05T04:36:26.456Z,19.20
2023-06-05T04:38:56.057Z,19.20
2023-06-05T04:41:26.285Z,19.20
2023-06-05T04:43:58.788Z,19.10
2023-06-05T04:46:29.093Z,19.10
2023-06-05T04:49:00.108Z,19.00
2023-06-05T04:51:31.676Z,19.10
2023-06-05T04:54:01.794Z,19.10
2023-06-05T04:56:33.892Z,19.00
2023-06-05T04:59:09.194Z,19.10
2023-06-05T05:01:39.382Z,19.10
2023-06-05T05:04:09.677Z,19.10
2023-06-05T05:06:39.653Z,19.10
2023-06-05T05:09:10.558Z,19.10
2023-06-05T05:11:41.955Z,19.00
2023-06-05T05:14:13.293Z,18.90
2023-06-05T05:16:44.270Z,19.00
2023-06-05T05:19:14.652Z,19.10
2023-06-05T05:21:44.586Z,19.10
2023-06-05T05:24:14.392Z,19.10
2023-06-05T05:26:45.421Z,19.00
2023-06-05T05:29:16.985Z,19.10
2023-06-05T05:31:47.160Z,19.30
2023-06-05T05:34:35.103Z,19.10
2023-06-05T05:37:06.784Z,19.30
2023-06-05T05:39:36.707Z,19.30
2023-06-05T05:42:06.937Z,19.50
2023-06-05T05:44:38.690Z,19.60
2023-06-05T05:47:08.492Z,19.60
2023-06-05T05:49:38.511Z,19.60
2023-06-05T05:52:08.325Z,19.60
2023-06-05T05:54:38.157Z,19.70
2023-06-05T05:57:09.480Z,19.50
2023-06-05T05:59:45.958Z,19.60
2023-06-05T06:02:15.711Z,19.50
2023-06-05T06:04:47.287Z,19.40
2023-06-05T06:07:34.452Z,19.50
2023-06-05T06:10:04.865Z,19.50
2023-06-05T06:12:35.078Z,19.70
2023-06-05T06:15:07.346Z,19.60
2023-06-05T06:17:37.517Z,19.50
2023-06-05T06:20:08.717Z,19.70
2023-06-05T06:22:38.429Z,19.50
2023-06-05T06:25:08.955Z,19.50
2023-06-05T06:27:38.583Z,19.60
2023-06-05T06:30:13.289Z,19.80
2023-06-05T06:32:43.249Z,19.60
2023-06-05T06:35:29.901Z,19.70
2023-06-05T06:38:07.333Z,19.50
2023-06-05T06:40:37.134Z,19.60
2023-06-05T06:43:06.729Z,19.40
2023-06-05T06:45:46.049Z,19.50
2023-06-05T06:48:18.284Z,19.70
2023-06-05T06:50:48.782Z,19.60
2023-06-05T06:53:20.302Z,19.70
2023-06-05T06:55:52.697Z,19.70
2023-06-05T06:58:22.391Z,19.80
2023-06-05T07:01:11.539Z,19.70
2023-06-05T07:03:42.893Z,19.60
2023-06-05T07:06:16.612Z,19.50
2023-06-05T07:08:46.413Z,19.30
2023-06-05T07:11:17.176Z,19.30
2023-06-05T07:13:47.067Z,19.60
2023-06-05T07:16:18.377Z,19.50
2023-06-05T07:18:48.229Z,19.30
2023-06-05T07:21:18.129Z,19.20
2023-06-05T07:23:53.154Z,19.30
2023-06-05T07:26:25.740Z,19.40
2023-06-05T07:28:55.770Z,19.30
2023-06-05T07:31:27.573Z,19.10
2023-06-05T07:33:57.224Z,19.30
2023-06-05T07:36:26.841Z,19.20
2023-06-05T07:38:57.977Z,19.40
2023-06-05T07:41:33.321Z,19.40
2023-06-05T07:44:03.062Z,19.40
2023-06-05T07:46:34.546Z,19.30
2023-06-05T07:49:05.022Z,19.30
2023-06-05T07:51:37.177Z,19.30
2023-06-05T07:54:11.186Z,19.00
2023-06-05T07:56:41.521Z,19.10
2023-06-05T07:59:12.037Z,19.20
2023-06-05T08:01:46.757Z,19.30
2023-06-05T08:04:18.564Z,19.50
2023-06-05T08:06:48.549Z,19.60
2023-06-05T08:09:18.145Z,19.70
2023-06-05T08:11:48.079Z,19.80
2023-06-05T08:14:18.102Z,20.10
2023-06-05T08:16:52.430Z,20.20
2023-06-05T08:19:22.021Z,20.40
2023-06-05T08:21:55.506Z,20.20
2023-06-05T08:24:28.804Z,20.40
2023-06-05T08:27:00.850Z,20.50
2023-06-05T08:29:31.279Z,20.40
2023-06-05T08:32:02.623Z,20.30
2023-06-05T08:34:34.385Z,20.20
2023-06-05T08:37:04.721Z,20.50
2023-06-05T08:39:34.844Z,20.70
2023-06-05T08:42:05.167Z,20.70
2023-06-05T08:44:35.733Z,20.90
2023-06-05T08:47:10.303Z,21.00
2023-06-05T08:49:43.185Z,20.90
2023-06-05T08:52:15.662Z,21.10
2023-06-05T08:54:46.203Z,21.10
2023-06-05T08:57:16.525Z,21.10
2023-06-05T08:59:47.273Z,21.50
2023-06-05T09:02:19.624Z,21.60
2023-06-05T09:04:51.408Z,20.90
2023-06-05T09:07:22.739Z,21.20
2023-06-05T09:09:52.452Z,21.20
2023-06-05T09:12:22.157Z,21.30
2023-06-05T09:14:54.453Z,21.10
2023-06-05T09:17:27.953Z,21.60
2023-06-05T09:19:57.837Z,22.00
2023-06-05T09:22:39.428Z,22.00
2023-06-05T09:25:10.059Z,21.60
2023-06-05T09:27:40.406Z,21.50
2023-06-05T09:30:11.213Z,21.60
2023-06-05T09:32:42.681Z,21.50
2023-06-05T09:35:20.490Z,21.80
2023-06-05T09:37:50.791Z,21.70
2023-06-05T09:40:39.865Z,22.00
2023-06-05T09:43:25.858Z,22.20
2023-06-05T09:45:55.656Z,21.90
2023-06-05T09:48:27.751Z,22.20
2023-06-05T09:51:04.813Z,22.40
2023-06-05T09:53:35.237Z,22.40
2023-06-05T09:56:05.929Z,22.50
2023-06-05T09:58:36.701Z,22.40
2023-06-05T10:01:09.297Z,22.50
2023-06-05T10:03:46.975Z,22.50
2023-06-05T10:06:24.665Z,22.60
2023-06-05T10:08:59.707Z,22.70
2023-06-05T10:11:29.710Z,22.60
2023-06-05T10:14:00.976Z,22.00
2023-06-05T10:16:31.262Z,21.90
2023-06-05T10:19:04.371Z,22.10
2023-06-05T10:21:35.712Z,22.30
2023-06-05T10:24:10.688Z,22.50
2023-06-05T10:27:13.965Z,22.40
2023-06-05T10:30:25.245Z,22.30
2023-06-05T10:33:11.536Z,22.70
2023-06-05T10:35:52.203Z,22.60
2023-06-05T10:38:24.473Z,22.70
2023-06-05T10:40:57.345Z,22.70
2023-06-05T10:43:28.132Z,22.90
2023-06-05T10:49:09.826Z,23.20
2023-06-05T10:51:45.768Z,24.20
2023-06-05T10:54:18.128Z,24.60
2023-06-05T10:57:04.928Z,24.60
2023-06-05T10:59:36.285Z,24.30
2023-06-05T11:02:28.073Z,24.20
2023-06-05T11:05:12.479Z,24.20
2023-06-05T11:07:49.857Z,24.30
2023-06-05T11:10:22.887Z,24.00
2023-06-05T11:13:10.279Z,24.60
2023-06-05T11:15:48.072Z,24.80
2023-06-05T11:18:34.925Z,24.60
2023-06-05T11:21:05.211Z,24.60
2023-06-05T11:23:36.357Z,24.10
2023-06-05T11:26:38.916Z,24.50
2023-06-05T11:29:20.416Z,24.40
2023-06-05T11:31:50.461Z,24.50
2023-06-05T11:34:21.367Z,24.60
2023-06-05T11:36:55.276Z,24.50
2023-06-05T11:39:31.528Z,24.40
2023-06-05T11:42:01.249Z,24.70
2023-06-05T11:44:38.952Z,24.80
2023-06-05T11:47:09.374Z,25.00
2023-06-05T11:49:39.074Z,25.70
2023-06-05T11:52:08.995Z,25.60
2023-06-05T11:54:47.194Z,26.10
2023-06-05T11:57:19.260Z,26.10
2023-06-05T11:59:48.988Z,25.80
2023-06-05T12:02:27.290Z,25.10
2023-06-05T12:04:57.118Z,24.60
2023-06-05T12:07:37.658Z,24.50
2023-06-05T12:10:12.380Z,24.80
2023-06-05T12:12:53.925Z,24.60
2023-06-05T12:15:24.500Z,24.90
2023-06-05T12:17:55.474Z,24.80
2023-06-05T12:20:26.211Z,25.00
2023-06-05T12:22:57.931Z,25.60
2023-06-05T12:25:29.478Z,25.90
2023-06-05T12:27:59.086Z,25.70
2023-06-05T12:30:42.005Z,25.00
2023-06-05T12:33:12.072Z,24.90
2023-06-05T12:35:42.156Z,24.80
2023-06-05T12:38:12.685Z,25.20
2023-06-05T12:40:53.448Z,25.00
2023-06-05T12:43:26.848Z,25.00
2023-06-05T12:45:56.566Z,25.00
2023-06-05T12:48:27.089Z,25.00
2023-06-05T12:50:57.420Z,25.20
2023-06-05T12:53:27.727Z,24.80
2023-06-05T12:56:00.217Z,24.80
2023-06-05T12:58:32.897Z,24.60
2023-06-05T13:01:03.615Z,24.90
2023-06-05T13:03:34.938Z,24.70
2023-06-05T13:06:05.485Z,24.60
2023-06-05T13:08:35.615Z,24.80
2023-06-05T13:11:07.585Z,25.20
2023-06-05T13:13:38.631Z,25.70
2023-06-05T13:16:09.758Z,25.80
2023-06-05T13:18:41.717Z,25.70
2023-06-05T13:21:12.672Z,25.80
2023-06-05T13:23:44.187Z,26.00
2023-06-05T13:26:15.875Z,26.00
2023-06-05T13:28:46.494Z,26.30
2023-06-05T13:31:16.104Z,26.20
2023-06-05T13:33:45.809Z,25.50
2023-06-05T13:36:16.241Z,25.20
2023-06-05T13:38:48.407Z,24.90
2023-06-05T13:41:19.951Z,25.70
2023-06-05T13:43:49.560Z,26.10
2023-06-05T13:46:19.133Z,25.90
2023-06-05T13:48:49.696Z,26.60
2023-06-05T13:51:19.199Z,28.00
2023-06-05T13:53:48.812Z,27.20
2023-06-05T13:56:27.759Z,27.60
2023-06-05T13:58:58.873Z,28.40
2023-06-05T14:01:28.586Z,28.20
2023-06-05T14:03:58.591Z,27.80
2023-06-05T14:06:30.466Z,26.50
2023-06-05T14:09:03.040Z,27.90
2023-06-05T14:11:38.283Z,27.10
2023-06-05T14:14:09.653Z,27.20
2023-06-05T14:16:39.846Z,26.30
2023-06-05T14:19:09.567Z,26.60
2023-06-05T14:21:43.596Z,27.90
2023-06-05T14:24:14.171Z,28.00
2023-06-05T14:26:45.560Z,28.20
2023-06-05T14:29:15.886Z,26.40
2023-06-05T14:31:45.757Z,25.70
2023-06-05T14:34:15.617Z,25.20
2023-06-05T14:36:51.538Z,24.90
2023-06-05T14:39:24.253Z,25.00
2023-06-05T14:41:57.753Z,26.80
2023-06-05T14:44:27.365Z,27.40
2023-06-05T14:47:01.467Z,27.20
2023-06-05T14:49:33.624Z,26.60
2023-06-05T14:52:08.475Z,25.70
2023-06-05T14:54:39.466Z,25.50
2023-06-05T14:57:12.697Z,24.60
2023-06-05T14:59:44.345Z,24.10
2023-06-05T15:02:14.266Z,24.10
2023-06-05T15:04:43.842Z,24.20
2023-06-05T15:07:13.884Z,24.20
2023-06-05T15:09:43.687Z,24.00
2023-06-05T15:12:15.667Z,24.00
2023-06-05T15:14:46.797Z,23.80
2023-06-05T15:17:16.136Z,23.80
2023-06-05T15:19:47.108Z,24.20
2023-06-05T15:22:17.470Z,25.10
2023-06-05T15:24:48.609Z,24.30
2023-06-05T15:27:19.851Z,24.60
2023-06-05T15:30:03.798Z,24.20
2023-06-05T15:32:34.108Z,24.60
2023-06-05T15:35:04.467Z,25.70
2023-06-05T15:37:34.677Z,25.40
2023-06-05T15:40:04.796Z,25.10
2023-06-05T15:42:38.285Z,24.80
2023-06-05T15:45:12.321Z,24.20
2023-06-05T15:47:53.080Z,24.30
2023-06-05T15:50:23.289Z,24.40
2023-06-05T15:52:52.997Z,24.20
2023-06-05T15:55:22.818Z,24.40
2023-06-05T15:58:04.695Z,24.40
2023-06-05T16:00:34.625Z,24.50
2023-06-05T16:03:04.261Z,24.30
2023-06-05T16:05:34.656Z,23.60
2023-06-05T16:08:07.328Z,23.50
2023-06-05T16:10:37.876Z,23.50
2023-06-05T16:13:12.647Z,23.40
2023-06-05T16:15:44.340Z,23.40
2023-06-05T16:18:14.363Z,23.30
2023-06-05T16:20:44.274Z,22.90
2023-06-05T16:23:16.445Z,22.80
2023-06-05T16:25:46.055Z,23.00
2023-06-05T16:28:18.022Z,22.90
2023-06-05T16:30:48.431Z,23.00
2023-06-05T16:33:18.456Z,22.90
2023-06-05T16:35:47.858Z,22.90
2023-06-05T16:38:17.773Z,22.90
2023-06-05T16:40:49.430Z,22.80
2023-06-05T16:43:20.677Z,22.80
2023-06-05T16:45:52.058Z,22.70
2023-06-05T16:48:22.324Z,22.70
2023-06-05T16:50:52.152Z,22.40
2023-06-05T16:53:22.175Z,22.50
2023-06-05T16:55:54.138Z,22.40
2023-06-05T16:58:25.384Z,22.40
2023-06-05T17:00:55.195Z,22.60
2023-06-05T17:03:25.386Z,22.50
2023-06-05T17:05:55.499Z,22.30
2023-06-05T17:08:26.434Z,22.30
2023-06-05T17:10:59.589Z,22.40
2023-06-05T17:13:30.918Z,22.20
2023-06-05T17:16:00.760Z,22.20
2023-06-05T17:18:30.449Z,22.10
2023-06-05T17:21:00.034Z,22.00
2023-06-05T17:23:29.782Z,21.70
2023-06-05T17:25:59.867Z,21.80
2023-06-05T17:28:31.736Z,21.70
2023-06-05T17:31:02.097Z,21.70
2023-06-05T17:33:35.134Z,21.50
2023-06-05T17:36:04.744Z,21.40
2023-06-05T17:38:36.212Z,21.50
2023-06-05T17:41:06.021Z,21.30
2023-06-05T17:43:37.146Z,21.30
2023-06-05T17:46:07.304Z,21.20
2023-06-05T17:48:37.238Z,21.20
2023-06-05T17:51:08.039Z,21.20
2023-06-05T17:53:38.290Z,21.00
2023-06-05T17:56:08.782Z,21.20
2023-06-05T17:58:39.817Z,21.20
2023-06-05T18:01:10.063Z,21.20
2023-06-05T18:03:42.806Z,21.20
2023-06-05T18:06:12.634Z,21.30
2023-06-05T18:08:42.445Z,21.10
2023-06-05T18:11:12.189Z,21.20
2023-06-05T18:13:45.137Z,21.20
2023-06-05T18:16:14.890Z,21.00
2023-06-05T18:18:44.445Z,21.00
2023-06-05T18:21:16.322Z,21.30
2023-06-05T18:23:46.691Z,21.10
2023-06-05T18:26:19.751Z,21.20
2023-06-05T18:28:51.088Z,21.30
2023-06-05T18:31:21.797Z,21.30
2023-06-05T18:33:52.477Z,21.40
2023-06-05T18:36:22.663Z,21.30
2023-06-05T18:38:52.375Z,21.20
2023-06-05T18:41:21.867Z,21.10
2023-06-05T18:43:53.019Z,21.10
2023-06-05T18:46:22.813Z,21.10
2023-06-05T18:48:52.536Z,21.00
2023-06-05T18:51:23.850Z,20.90
2023-06-05T18:53:55.165Z,21.00
2023-06-05T18:56:24.842Z,21.10
2023-06-05T18:58:58.347Z,20.90
2023-06-05T19:01:28.057Z,21.00
2023-06-05T19:03:57.985Z,21.10
2023-06-05T19:06:28.182Z,21.00
2023-06-05T19:08:57.997Z,20.90
2023-06-05T19:11:30.886Z,20.90
2023-06-05T19:14:02.661Z,21.00
2023-06-05T19:16:34.963Z,21.00
2023-06-05T19:19:05.549Z,20.70
2023-06-05T19:21:36.165Z,20.80
2023-06-05T19:24:06.105Z,20.90
2023-06-05T19:26:36.517Z,21.00
2023-06-05T19:29:08.778Z,20.80
2023-06-05T19:31:40.199Z,20.60
2023-06-05T19:34:11.270Z,20.60
2023-06-05T19:36:50.012Z,20.80
2023-06-05T19:39:21.879Z,20.70
2023-06-05T19:41:53.449Z,20.70
2023-06-05T19:44:24.910Z,20.60
2023-06-05T19:46:54.358Z,20.70
2023-06-05T19:49:27.965Z,20.70
2023-06-05T19:51:57.485Z,20.60
2023-06-05T19:54:27.275Z,20.60
2023-06-05T19:56:56.891Z,20.50
2023-06-05T19:59:27.926Z,20.50
2023-06-05T20:01:58.770Z,20.50
2023-06-05T20:04:28.581Z,20.40
2023-06-05T20:06:58.387Z,20.20
2023-06-05T20:09:27.986Z,20.20
2023-06-05T20:11:59.368Z,20.20
2023-06-05T20:14:30.941Z,20.20
2023-06-05T20:17:01.172Z,20.20
2023-06-05T20:19:31.050Z,20.30
2023-06-05T20:22:05.960Z,20.30
2023-06-05T20:24:35.561Z,20.00
2023-06-05T20:27:05.693Z,20.10
2023-06-05T20:29:36.931Z,20.10
2023-06-05T20:32:09.717Z,20.20
2023-06-05T20:34:40.261Z,20.20
2023-06-05T20:37:09.973Z,20.20
2023-06-05T20:39:42.229Z,20.00
2023-06-05T20:42:15.817Z,19.90
2023-06-05T20:44:48.508Z,19.90
2023-06-05T20:47:18.411Z,19.90
2023-06-05T20:49:48.040Z,19.70
2023-06-05T20:52:20.696Z,19.70
2023-06-05T20:54:50.417Z,19.80
2023-06-05T20:57:21.895Z,19.90
2023-06-05T20:59:53.419Z,19.90
2023-06-05T21:02:26.069Z,20.00
2023-06-05T21:04:57.230Z,19.80
2023-06-05T21:07:31.151Z,19.90
2023-06-05T21:10:00.863Z,19.90
2023-06-05T21:12:30.681Z,19.80
2023-06-05T21:15:01.820Z,19.90
2023-06-05T21:17:31.253Z,19.70
2023-06-05T21:20:01.036Z,19.90
2023-06-05T21:22:30.836Z,19.70
2023-06-05T21:25:00.548Z,19.70
2023-06-05T21:27:30.453Z,19.80
2023-06-05T21:30:02.035Z,19.70
2023-06-05T21:32:31.650Z,19.60
2023-06-05T21:35:01.426Z,19.60
2023-06-05T21:37:33.185Z,19.80
2023-06-05T21:40:02.589Z,19.90
2023-06-05T21:42:31.982Z,19.90
2023-06-05T21:45:03.024Z,19.60
2023-06-05T21:47:34.502Z,19.80
2023-06-05T21:50:04.285Z,19.70
2023-06-05T21:52:35.484Z,19.50
2023-06-05T21:55:07.504Z,19.60
2023-06-05T21:57:38.370Z,19.70
2023-06-05T22:00:11.932Z,19.70
2023-06-05T22:02:45.647Z,19.60
2023-06-05T22:05:16.071Z,19.60
2023-06-05T22:07:50.997Z,19.60
2023-06-05T22:10:20.707Z,19.40
2023-06-05T22:12:50.338Z,19.40
2023-06-05T22:15:21.669Z,19.50
2023-06-05T22:17:52.732Z,19.40
2023-06-05T22:20:27.930Z,19.50
2023-06-05T22:22:57.559Z,19.40
2023-06-05T22:25:34.461Z,19.40
2023-06-05T22:28:09.666Z,19.50
2023-06-05T22:30:41.117Z,19.60
2023-06-05T22:33:11.645Z,19.60
2023-06-05T22:35:41.149Z,19.50
2023-06-05T22:38:13.017Z,19.60
2023-06-05T22:40:42.734Z,19.80
2023-06-05T22:43:12.127Z,19.70
2023-06-05T22:45:43.321Z,19.70
2023-06-05T22:48:13.296Z,19.50
2023-06-05T22:50:44.138Z,19.60
2023-06-05T22:53:18.342Z,19.70
2023-06-05T22:55:48.047Z,19.90
2023-06-05T22:58:17.553Z,19.80
2023-06-05T23:00:51.802Z,19.80
2023-06-05T23:03:22.598Z,19.80
2023-06-05T23:06:02.137Z,19.80
2023-06-05T23:08:32.695Z,19.90
2023-06-05T23:11:02.312Z,19.80
2023-06-05T23:13:32.304Z,19.70
2023-06-05T23:16:05.994Z,19.80
2023-06-05T23:18:40.834Z,19.90
2023-06-05T23:21:11.142Z,19.90
2023-06-05T23:23:43.764Z,20.00
2023-06-05T23:26:13.437Z,19.90
2023-06-05T23:28:43.247Z,19.80
2023-06-05T23:31:14.423Z,19.90
2023-06-05T23:33:44.207Z,19.90
2023-06-05T23:36:14.125Z,19.80
2023-06-05T23:38:45.874Z,19.90
2023-06-05T23:41:15.689Z,19.80
2023-06-05T23:43:48.379Z,19.70
2023-06-05T23:46:23.059Z,19.90
2023-06-05T23:48:53.011Z,20.00
2023-06-05T23:51:23.554Z,19.90
2023-06-05T23:53:53.148Z,20.10
2023-06-05T23:56:22.644Z,20.00
2023-06-05T23:58:52.565Z,20.00
